This is the latest recevied weather packets stored in our database for station/object N9WHM. If no packets are shown the sender has not sent any weather packets the latest 1 day(s).
| Time | Temp. | Humidity | Pressure | Rain* | Wind** | Luminosity | Snow |
|---|---|---|---|---|---|---|---|
| 1778066850 | 1.11° C | 66% | 1017.4 hPa | 0 mm | - | 8 W/m² | - |
| 1778065944 | 0.56° C | 70% | 1017.2 hPa | 0 mm | - | 2 W/m² | - |
| 1778065640 | 0.56° C | 70% | 1017.2 hPa | 0 mm | - | 1 W/m² | - |
| 1778065338 | 0.56° C | 69% | 1017.2 hPa | 0 mm | - | 1 W/m² | - |
| 1778064127 | 1.67° C | 65% | 1017.1 hPa | 0 mm | - | 0 W/m² | - |
| 1778062916 | 1.67° C | 65% | 1017 hPa | 0 mm | - | 0 W/m² | - |
| 1778062008 | 2.22° C | 63% | 1016.8 hPa | 0 mm | - | 0 W/m² | - |
| 1778061404 | 2.22° C | 63% | 1017 hPa | 0 mm | - | 0 W/m² | - |
| 1778061100 | 2.22° C | 63% | 1017 hPa | 0 mm | - | 0 W/m² | - |
| 1778060194 | 2.22° C | 62% | 1016.9 hPa | 0 mm | - | 0 W/m² | - |
| 1778058983 | 3.33° C | 59% | 1016.6 hPa | 0 mm | - | 0 W/m² | - |
| 1778058680 | 3.33° C | 58% | 1016.6 hPa | 0 mm | - | 0 W/m² | - |
| 1778058074 | 3.89° C | 56% | 1016.6 hPa | 0 mm | - | 0 W/m² | - |
| 1778057771 | 3.33° C | 57% | 1016.5 hPa | 0 mm | - | 0 W/m² | - |
| 1778057468 | 3.89° C | 56% | 1016.5 hPa | 0 mm | - | 0 W/m² | - |
| 1778056861 | 3.89° C | 55% | 1016.5 hPa | 0 mm | - | 0 W/m² | - |
| 1778056558 | 3.89° C | 54% | 1016.6 hPa | 0 mm | - | 0 W/m² | - |
| 1778055952 | 3.89° C | 54% | 1016.4 hPa | 0 mm | - | 0 W/m² | - |
| 1778055648 | 3.89° C | 54% | 1016.4 hPa | 0 mm | - | 0 W/m² | - |
| 1778055346 | 3.89° C | 54% | 1016.4 hPa | 0 mm | - | 0 W/m² | - |
| 1778055043 | 3.89° C | 54% | 1016.3 hPa | 0 mm | - | 0 W/m² | - |
| 1778054741 | 4.44° C | 54% | 1016.4 hPa | 0 mm | - | 0 W/m² | - |
| 1778054135 | 4.44° C | 53% | 1016.6 hPa | 0 mm | - | 0 W/m² | - |
| 1778053832 | 4.44° C | 52% | 1016.5 hPa | 0 mm | - | 0 W/m² | - |
| 1778052621 | 5° C | 51% | 1016.1 hPa | 0 mm | - | 0 W/m² | - |
* Rain latest hour (hover to see other rain measurements)
** Current wind speed in m/s (hover to see current wind gust speed)